sensor_id;sensor_type;location;lat;lon;timestamp;P1;durP1;ratioP1;P2;durP2;ratioP2
71610;SDS011;59459;51.172;6.682;2023-09-18T00:00:36;7.93;;;3.77;;
71610;SDS011;59459;51.172;6.682;2023-09-18T00:03:01;7.83;;;4.20;;
71610;SDS011;59459;51.172;6.682;2023-09-18T00:05:28;10.57;;;4.65;;
71610;SDS011;59459;51.172;6.682;2023-09-18T00:07:53;9.13;;;5.07;;
71610;SDS011;59459;51.172;6.682;2023-09-18T00:10:18;7.47;;;4.17;;
71610;SDS011;59459;51.172;6.682;2023-09-18T00:12:43;12.27;;;4.67;;
71610;SDS011;59459;51.172;6.682;2023-09-18T00:15:09;8.97;;;4.50;;
71610;SDS011;59459;51.172;6.682;2023-09-18T00:17:35;10.53;;;4.30;;
71610;SDS011;59459;51.172;6.682;2023-09-18T00:20:00;9.55;;;4.18;;
71610;SDS011;59459;51.172;6.682;2023-09-18T00:22:25;9.17;;;4.57;;
71610;SDS011;59459;51.172;6.682;2023-09-18T00:24:51;10.97;;;5.03;;
71610;SDS011;59459;51.172;6.682;2023-09-18T00:27:16;9.17;;;5.00;;
71610;SDS011;59459;51.172;6.682;2023-09-18T00:29:41;9.53;;;4.97;;
71610;SDS011;59459;51.172;6.682;2023-09-18T00:32:07;8.73;;;4.40;;
71610;SDS011;59459;51.172;6.682;2023-09-18T00:34:32;10.30;;;5.03;;
71610;SDS011;59459;51.172;6.682;2023-09-18T00:36:57;9.20;;;4.50;;
71610;SDS011;59459;51.172;6.682;2023-09-18T00:39:24;9.80;;;4.47;;
71610;SDS011;59459;51.172;6.682;2023-09-18T00:41:49;12.27;;;4.77;;
71610;SDS011;59459;51.172;6.682;2023-09-18T00:44:18;7.95;;;4.07;;
71610;SDS011;59459;51.172;6.682;2023-09-18T00:46:44;8.67;;;4.77;;
71610;SDS011;59459;51.172;6.682;2023-09-18T00:49:09;8.67;;;4.57;;
71610;SDS011;59459;51.172;6.682;2023-09-18T00:51:35;10.77;;;4.63;;
71610;SDS011;59459;51.172;6.682;2023-09-18T00:54:00;9.60;;;4.80;;
71610;SDS011;59459;51.172;6.682;2023-09-18T00:56:25;8.87;;;4.63;;
71610;SDS011;59459;51.172;6.682;2023-09-18T00:58:51;9.57;;;4.70;;
71610;SDS011;59459;51.172;6.682;2023-09-18T01:01:17;8.52;;;4.82;;
71610;SDS011;59459;51.172;6.682;2023-09-18T01:03:47;9.02;;;4.72;;
71610;SDS011;59459;51.172;6.682;2023-09-18T01:06:13;10.33;;;5.40;;
71610;SDS011;59459;51.172;6.682;2023-09-18T01:08:39;10.82;;;5.18;;
71610;SDS011;59459;51.172;6.682;2023-09-18T01:11:06;11.90;;;4.63;;
71610;SDS011;59459;51.172;6.682;2023-09-18T01:13:35;10.48;;;5.90;;
71610;SDS011;59459;51.172;6.682;2023-09-18T01:18:50;9.93;;;4.70;;
71610;SDS011;59459;51.172;6.682;2023-09-18T01:21:15;10.93;;;5.17;;
71610;SDS011;59459;51.172;6.682;2023-09-18T01:23:41;9.10;;;4.50;;
71610;SDS011;59459;51.172;6.682;2023-09-18T01:26:06;8.73;;;4.33;;
71610;SDS011;59459;51.172;6.682;2023-09-18T01:28:31;10.37;;;4.53;;
71610;SDS011;59459;51.172;6.682;2023-09-18T01:30:56;9.70;;;4.43;;
71610;SDS011;59459;51.172;6.682;2023-09-18T01:33:21;9.40;;;4.60;;
71610;SDS011;59459;51.172;6.682;2023-09-18T01:35:47;9.40;;;5.00;;
71610;SDS011;59459;51.172;6.682;2023-09-18T01:38:13;8.43;;;4.27;;
71610;SDS011;59459;51.172;6.682;2023-09-18T01:40:38;9.95;;;4.60;;
71610;SDS011;59459;51.172;6.682;2023-09-18T01:43:04;10.20;;;4.70;;
71610;SDS011;59459;51.172;6.682;2023-09-18T01:45:29;8.80;;;4.80;;
71610;SDS011;59459;51.172;6.682;2023-09-18T01:47:55;9.13;;;4.37;;
71610;SDS011;59459;51.172;6.682;2023-09-18T01:50:21;10.43;;;4.87;;
71610;SDS011;59459;51.172;6.682;2023-09-18T01:52:46;8.90;;;4.50;;
71610;SDS011;59459;51.172;6.682;2023-09-18T01:55:11;9.83;;;4.63;;
71610;SDS011;59459;51.172;6.682;2023-09-18T01:57:36;9.73;;;4.73;;
71610;SDS011;59459;51.172;6.682;2023-09-18T02:00:02;10.90;;;4.80;;
71610;SDS011;59459;51.172;6.682;2023-09-18T02:02:32;9.75;;;5.28;;
71610;SDS011;59459;51.172;6.682;2023-09-18T02:04:57;12.80;;;5.30;;
71610;SDS011;59459;51.172;6.682;2023-09-18T02:07:23;8.47;;;4.63;;
71610;SDS011;59459;51.172;6.682;2023-09-18T02:09:48;9.57;;;5.10;;
71610;SDS011;59459;51.172;6.682;2023-09-18T02:12:13;12.27;;;5.30;;
71610;SDS011;59459;51.172;6.682;2023-09-18T02:14:42;10.05;;;4.90;;
71610;SDS011;59459;51.172;6.682;2023-09-18T02:17:08;8.97;;;4.83;;
71610;SDS011;59459;51.172;6.682;2023-09-18T02:19:33;12.37;;;5.13;;
71610;SDS011;59459;51.172;6.682;2023-09-18T02:21:58;10.33;;;5.03;;
71610;SDS011;59459;51.172;6.682;2023-09-18T02:24:23;11.20;;;5.30;;
71610;SDS011;59459;51.172;6.682;2023-09-18T02:26:48;11.23;;;4.53;;
71610;SDS011;59459;51.172;6.682;2023-09-18T02:29:14;11.00;;;5.00;;
71610;SDS011;59459;51.172;6.682;2023-09-18T02:31:39;9.32;;;4.63;;
71610;SDS011;59459;51.172;6.682;2023-09-18T02:34:05;9.83;;;4.87;;
71610;SDS011;59459;51.172;6.682;2023-09-18T02:36:30;9.80;;;5.05;;
71610;SDS011;59459;51.172;6.682;2023-09-18T02:38:55;10.10;;;4.63;;
71610;SDS011;59459;51.172;6.682;2023-09-18T02:41:21;12.27;;;5.10;;
71610;SDS011;59459;51.172;6.682;2023-09-18T02:43:46;10.40;;;5.00;;
71610;SDS011;59459;51.172;6.682;2023-09-18T02:46:11;11.80;;;5.13;;
71610;SDS011;59459;51.172;6.682;2023-09-18T02:48:36;9.10;;;4.97;;
71610;SDS011;59459;51.172;6.682;2023-09-18T02:51:02;11.93;;;4.90;;
71610;SDS011;59459;51.172;6.682;2023-09-18T02:53:27;9.00;;;4.17;;
71610;SDS011;59459;51.172;6.682;2023-09-18T02:55:53;9.07;;;4.15;;
71610;SDS011;59459;51.172;6.682;2023-09-18T02:58:19;10.53;;;4.43;;
71610;SDS011;59459;51.172;6.682;2023-09-18T03:00:45;11.55;;;4.90;;
71610;SDS011;59459;51.172;6.682;2023-09-18T03:03:11;11.20;;;4.65;;
71610;SDS011;59459;51.172;6.682;2023-09-18T03:05:37;13.00;;;5.60;;
71610;SDS011;59459;51.172;6.682;2023-09-18T03:08:03;9.33;;;4.47;;
71610;SDS011;59459;51.172;6.682;2023-09-18T03:10:32;9.47;;;5.03;;
71610;SDS011;59459;51.172;6.682;2023-09-18T03:12:57;10.73;;;4.93;;
71610;SDS011;59459;51.172;6.682;2023-09-18T03:15:22;8.97;;;4.93;;
71610;SDS011;59459;51.172;6.682;2023-09-18T03:17:50;10.77;;;4.70;;
71610;SDS011;59459;51.172;6.682;2023-09-18T03:20:15;10.98;;;4.28;;
71610;SDS011;59459;51.172;6.682;2023-09-18T03:22:40;14.03;;;5.07;;
71610;SDS011;59459;51.172;6.682;2023-09-18T03:25:05;9.57;;;4.87;;
71610;SDS011;59459;51.172;6.682;2023-09-18T03:27:31;10.43;;;4.63;;
71610;SDS011;59459;51.172;6.682;2023-09-18T03:29:56;11.20;;;5.15;;
71610;SDS011;59459;51.172;6.682;2023-09-18T03:32:22;9.97;;;4.50;;
71610;SDS011;59459;51.172;6.682;2023-09-18T03:34:50;12.47;;;4.60;;
71610;SDS011;59459;51.172;6.682;2023-09-18T03:37:15;9.52;;;4.78;;
71610;SDS011;59459;51.172;6.682;2023-09-18T03:39:40;8.97;;;4.97;;
71610;SDS011;59459;51.172;6.682;2023-09-18T03:42:05;10.50;;;4.67;;
71610;SDS011;59459;51.172;6.682;2023-09-18T03:44:31;9.20;;;5.07;;
71610;SDS011;59459;51.172;6.682;2023-09-18T03:46:57;11.65;;;5.20;;
71610;SDS011;59459;51.172;6.682;2023-09-18T03:49:22;12.60;;;5.23;;
71610;SDS011;59459;51.172;6.682;2023-09-18T03:51:47;10.77;;;4.90;;
71610;SDS011;59459;51.172;6.682;2023-09-18T03:54:12;9.70;;;4.27;;
71610;SDS011;59459;51.172;6.682;2023-09-18T03:56:37;9.93;;;5.07;;
71610;SDS011;59459;51.172;6.682;2023-09-18T03:59:03;9.07;;;4.43;;
71610;SDS011;59459;51.172;6.682;2023-09-18T04:01:30;8.23;;;3.93;;
71610;SDS011;59459;51.172;6.682;2023-09-18T04:03:55;11.40;;;4.77;;
71610;SDS011;59459;51.172;6.682;2023-09-18T04:06:21;8.80;;;3.83;;
71610;SDS011;59459;51.172;6.682;2023-09-18T04:08:46;10.07;;;4.83;;
71610;SDS011;59459;51.172;6.682;2023-09-18T04:11:11;8.70;;;4.37;;
71610;SDS011;59459;51.172;6.682;2023-09-18T04:13:37;8.87;;;4.27;;
71610;SDS011;59459;51.172;6.682;2023-09-18T04:16:03;9.10;;;4.30;;
71610;SDS011;59459;51.172;6.682;2023-09-18T04:18:29;10.82;;;4.93;;
71610;SDS011;59459;51.172;6.682;2023-09-18T04:20:54;11.40;;;5.03;;
71610;SDS011;59459;51.172;6.682;2023-09-18T04:25:44;12.17;;;4.60;;
71610;SDS011;59459;51.172;6.682;2023-09-18T04:28:11;9.00;;;4.03;;
71610;SDS011;59459;51.172;6.682;2023-09-18T04:30:36;11.90;;;4.33;;
71610;SDS011;59459;51.172;6.682;2023-09-18T04:33:01;8.73;;;3.87;;
71610;SDS011;59459;51.172;6.682;2023-09-18T04:35:26;8.60;;;4.20;;
71610;SDS011;59459;51.172;6.682;2023-09-18T04:37:55;12.10;;;4.00;;
71610;SDS011;59459;51.172;6.682;2023-09-18T04:40:20;9.93;;;4.57;;
71610;SDS011;59459;51.172;6.682;2023-09-18T04:42:45;8.73;;;4.30;;
71610;SDS011;59459;51.172;6.682;2023-09-18T04:45:10;8.33;;;3.97;;
71610;SDS011;59459;51.172;6.682;2023-09-18T04:47:35;11.33;;;4.37;;
71610;SDS011;59459;51.172;6.682;2023-09-18T04:50:01;11.65;;;4.50;;
71610;SDS011;59459;51.172;6.682;2023-09-18T04:52:31;9.40;;;4.17;;
71610;SDS011;59459;51.172;6.682;2023-09-18T04:54:56;7.93;;;4.07;;
71610;SDS011;59459;51.172;6.682;2023-09-18T04:57:22;9.48;;;4.10;;
71610;SDS011;59459;51.172;6.682;2023-09-18T04:59:47;8.93;;;3.80;;
71610;SDS011;59459;51.172;6.682;2023-09-18T05:02:13;8.87;;;4.30;;
71610;SDS011;59459;51.172;6.682;2023-09-18T05:04:38;10.93;;;3.90;;
71610;SDS011;59459;51.172;6.682;2023-09-18T05:07:03;10.23;;;3.73;;
71610;SDS011;59459;51.172;6.682;2023-09-18T05:09:28;7.87;;;3.33;;
71610;SDS011;59459;51.172;6.682;2023-09-18T05:11:54;8.93;;;4.17;;
71610;SDS011;59459;51.172;6.682;2023-09-18T05:14:19;9.50;;;4.03;;
71610;SDS011;59459;51.172;6.682;2023-09-18T05:16:44;9.83;;;3.60;;
71610;SDS011;59459;51.172;6.682;2023-09-18T05:19:09;8.47;;;3.80;;
71610;SDS011;59459;51.172;6.682;2023-09-18T05:21:34;9.00;;;4.10;;
71610;SDS011;59459;51.172;6.682;2023-09-18T05:23:59;10.90;;;3.57;;
71610;SDS011;59459;51.172;6.682;2023-09-18T05:26:25;12.18;;;3.88;;
71610;SDS011;59459;51.172;6.682;2023-09-18T05:28:51;7.17;;;3.40;;
71610;SDS011;59459;51.172;6.682;2023-09-18T05:31:18;6.93;;;3.13;;
71610;SDS011;59459;51.172;6.682;2023-09-18T05:33:44;8.63;;;3.43;;
71610;SDS011;59459;51.172;6.682;2023-09-18T05:36:09;9.50;;;3.45;;
71610;SDS011;59459;51.172;6.682;2023-09-18T05:38:34;7.93;;;2.60;;
71610;SDS011;59459;51.172;6.682;2023-09-18T05:41:00;8.63;;;3.10;;
71610;SDS011;59459;51.172;6.682;2023-09-18T05:43:25;8.20;;;3.03;;
71610;SDS011;59459;51.172;6.682;2023-09-18T05:45:50;13.43;;;3.30;;
71610;SDS011;59459;51.172;6.682;2023-09-18T05:48:15;7.17;;;2.83;;
71610;SDS011;59459;51.172;6.682;2023-09-18T05:50:41;7.40;;;2.90;;
71610;SDS011;59459;51.172;6.682;2023-09-18T05:53:06;8.43;;;3.00;;
71610;SDS011;59459;51.172;6.682;2023-09-18T05:55:35;9.73;;;2.87;;
71610;SDS011;59459;51.172;6.682;2023-09-18T05:58:00;13.52;;;3.30;;
71610;SDS011;59459;51.172;6.682;2023-09-18T06:00:26;9.10;;;3.10;;
71610;SDS011;59459;51.172;6.682;2023-09-18T06:02:51;6.33;;;2.67;;
71610;SDS011;59459;51.172;6.682;2023-09-18T06:05:17;9.40;;;3.23;;
71610;SDS011;59459;51.172;6.682;2023-09-18T06:07:42;6.87;;;2.30;;
71610;SDS011;59459;51.172;6.682;2023-09-18T06:10:07;6.67;;;2.40;;
71610;SDS011;59459;51.172;6.682;2023-09-18T06:12:33;6.93;;;2.70;;
71610;SDS011;59459;51.172;6.682;2023-09-18T06:14:58;8.27;;;2.77;;
71610;SDS011;59459;51.172;6.682;2023-09-18T06:17:23;8.53;;;2.87;;
71610;SDS011;59459;51.172;6.682;2023-09-18T06:19:48;5.38;;;2.08;;
71610;SDS011;59459;51.172;6.682;2023-09-18T06:22:14;4.97;;;2.53;;
71610;SDS011;59459;51.172;6.682;2023-09-18T06:24:39;5.47;;;2.47;;
71610;SDS011;59459;51.172;6.682;2023-09-18T06:27:05;9.73;;;2.30;;
71610;SDS011;59459;51.172;6.682;2023-09-18T06:29:33;4.80;;;2.03;;
71610;SDS011;59459;51.172;6.682;2023-09-18T06:31:58;5.65;;;2.10;;
71610;SDS011;59459;51.172;6.682;2023-09-18T06:34:24;6.10;;;1.90;;
71610;SDS011;59459;51.172;6.682;2023-09-18T06:36:49;7.78;;;2.53;;
71610;SDS011;59459;51.172;6.682;2023-09-18T06:39:15;5.53;;;2.30;;
71610;SDS011;59459;51.172;6.682;2023-09-18T06:41:40;6.03;;;1.97;;
71610;SDS011;59459;51.172;6.682;2023-09-18T06:44:05;7.20;;;2.03;;
71610;SDS011;59459;51.172;6.682;2023-09-18T06:46:30;7.30;;;2.27;;
71610;SDS011;59459;51.172;6.682;2023-09-18T06:48:56;9.53;;;2.50;;
71610;SDS011;59459;51.172;6.682;2023-09-18T06:51:21;11.40;;;2.70;;
71610;SDS011;59459;51.172;6.682;2023-09-18T06:53:46;5.73;;;1.90;;
71610;SDS011;59459;51.172;6.682;2023-09-18T06:56:11;4.77;;;1.40;;
71610;SDS011;59459;51.172;6.682;2023-09-18T06:58:37;4.83;;;1.23;;
71610;SDS011;59459;51.172;6.682;2023-09-18T07:01:02;6.68;;;1.60;;
71610;SDS011;59459;51.172;6.682;2023-09-18T07:03:31;5.30;;;1.80;;
71610;SDS011;59459;51.172;6.682;2023-09-18T07:05:58;5.13;;;1.70;;
71610;SDS011;59459;51.172;6.682;2023-09-18T07:08:23;4.13;;;1.43;;
71610;SDS011;59459;51.172;6.682;2023-09-18T07:10:51;6.27;;;1.70;;
71610;SDS011;59459;51.172;6.682;2023-09-18T07:13:16;5.03;;;1.38;;
71610;SDS011;59459;51.172;6.682;2023-09-18T07:15:41;4.80;;;1.63;;
71610;SDS011;59459;51.172;6.682;2023-09-18T07:18:06;4.87;;;1.30;;
71610;SDS011;59459;51.172;6.682;2023-09-18T07:20:32;3.80;;;1.40;;
71610;SDS011;59459;51.172;6.682;2023-09-18T07:22:57;3.67;;;1.40;;
71610;SDS011;59459;51.172;6.682;2023-09-18T07:25:22;3.70;;;1.33;;
71610;SDS011;59459;51.172;6.682;2023-09-18T07:27:47;5.00;;;1.10;;
71610;SDS011;59459;51.172;6.682;2023-09-18T07:30:13;4.80;;;1.30;;
71610;SDS011;59459;51.172;6.682;2023-09-18T07:32:42;4.07;;;1.20;;
71610;SDS011;59459;51.172;6.682;2023-09-18T07:35:08;3.00;;;1.27;;
71610;SDS011;59459;51.172;6.682;2023-09-18T07:37:33;3.23;;;1.10;;
71610;SDS011;59459;51.172;6.682;2023-09-18T07:40:00;4.78;;;1.38;;
71610;SDS011;59459;51.172;6.682;2023-09-18T07:42:25;4.57;;;1.37;;
71610;SDS011;59459;51.172;6.682;2023-09-18T07:44:51;4.93;;;1.43;;
71610;SDS011;59459;51.172;6.682;2023-09-18T07:47:16;4.33;;;1.40;;
71610;SDS011;59459;51.172;6.682;2023-09-18T07:49:41;4.07;;;1.00;;
71610;SDS011;59459;51.172;6.682;2023-09-18T07:52:06;4.13;;;1.30;;
71610;SDS011;59459;51.172;6.682;2023-09-18T07:54:31;3.50;;;1.17;;
71610;SDS011;59459;51.172;6.682;2023-09-18T07:56:57;4.80;;;1.47;;
71610;SDS011;59459;51.172;6.682;2023-09-18T07:59:22;4.73;;;1.10;;
71610;SDS011;59459;51.172;6.682;2023-09-18T08:01:50;2.30;;;1.07;;
71610;SDS011;59459;51.172;6.682;2023-09-18T08:04:15;4.27;;;1.67;;
71610;SDS011;59459;51.172;6.682;2023-09-18T08:06:40;4.87;;;1.47;;
71610;SDS011;59459;51.172;6.682;2023-09-18T08:09:06;3.90;;;1.13;;
71610;SDS011;59459;51.172;6.682;2023-09-18T08:11:34;2.75;;;1.10;;
71610;SDS011;59459;51.172;6.682;2023-09-18T08:14:00;2.55;;;1.15;;
71610;SDS011;59459;51.172;6.682;2023-09-18T08:16:25;1.87;;;1.20;;
71610;SDS011;59459;51.172;6.682;2023-09-18T08:18:51;4.53;;;1.00;;
71610;SDS011;59459;51.172;6.682;2023-09-18T08:21:17;5.57;;;1.25;;
71610;SDS011;59459;51.172;6.682;2023-09-18T08:23:43;4.77;;;1.00;;
71610;SDS011;59459;51.172;6.682;2023-09-18T08:26:08;4.17;;;1.10;;
71610;SDS011;59459;51.172;6.682;2023-09-18T08:28:33;2.30;;;1.17;;
71610;SDS011;59459;51.172;6.682;2023-09-18T08:31:00;4.53;;;0.80;;
71610;SDS011;59459;51.172;6.682;2023-09-18T08:33:26;4.63;;;1.33;;
71610;SDS011;59459;51.172;6.682;2023-09-18T08:35:51;2.97;;;1.23;;
71610;SDS011;59459;51.172;6.682;2023-09-18T08:38:16;3.07;;;0.90;;
71610;SDS011;59459;51.172;6.682;2023-09-18T08:40:42;2.47;;;1.00;;
71610;SDS011;59459;51.172;6.682;2023-09-18T08:43:07;3.33;;;1.00;;
71610;SDS011;59459;51.172;6.682;2023-09-18T08:45:52;4.93;;;1.10;;
71610;SDS011;59459;51.172;6.682;2023-09-18T08:48:18;3.88;;;1.13;;
71610;SDS011;59459;51.172;6.682;2023-09-18T08:50:43;3.13;;;1.00;;
71610;SDS011;59459;51.172;6.682;2023-09-18T08:53:10;1.77;;;0.90;;
71610;SDS011;59459;51.172;6.682;2023-09-18T08:55:35;2.80;;;1.03;;
71610;SDS011;59459;51.172;6.682;2023-09-18T08:58:00;3.40;;;1.13;;
71610;SDS011;59459;51.172;6.682;2023-09-18T09:00:26;3.53;;;1.27;;
71610;SDS011;59459;51.172;6.682;2023-09-18T09:02:51;2.97;;;0.90;;
71610;SDS011;59459;51.172;6.682;2023-09-18T09:05:19;4.23;;;1.10;;
71610;SDS011;59459;51.172;6.682;2023-09-18T09:07:44;3.80;;;1.20;;
71610;SDS011;59459;51.172;6.682;2023-09-18T09:10:09;3.53;;;1.17;;
71610;SDS011;59459;51.172;6.682;2023-09-18T09:15:15;5.22;;;1.45;;
71610;SDS011;59459;51.172;6.682;2023-09-18T09:17:41;3.03;;;1.00;;
71610;SDS011;59459;51.172;6.682;2023-09-18T09:20:10;3.05;;;0.80;;
71610;SDS011;59459;51.172;6.682;2023-09-18T09:22:39;3.93;;;1.20;;
71610;SDS011;59459;51.172;6.682;2023-09-18T09:25:21;2.33;;;1.15;;
71610;SDS011;59459;51.172;6.682;2023-09-18T09:27:46;3.88;;;1.25;;
71610;SDS011;59459;51.172;6.682;2023-09-18T09:30:13;2.90;;;1.27;;
71610;SDS011;59459;51.172;6.682;2023-09-18T09:32:43;6.00;;;1.40;;
71610;SDS011;59459;51.172;6.682;2023-09-18T09:35:15;2.58;;;1.23;;
71610;SDS011;59459;51.172;6.682;2023-09-18T09:37:43;3.28;;;1.02;;
71610;SDS011;59459;51.172;6.682;2023-09-18T09:40:09;3.13;;;1.23;;
71610;SDS011;59459;51.172;6.682;2023-09-18T09:42:39;3.20;;;1.25;;
71610;SDS011;59459;51.172;6.682;2023-09-18T09:45:09;3.83;;;1.15;;
71610;SDS011;59459;51.172;6.682;2023-09-18T09:47:36;2.40;;;1.00;;
71610;SDS011;59459;51.172;6.682;2023-09-18T09:50:14;2.90;;;1.13;;
71610;SDS011;59459;51.172;6.682;2023-09-18T09:52:44;2.43;;;0.63;;
71610;SDS011;59459;51.172;6.682;2023-09-18T09:55:21;2.75;;;1.40;;
71610;SDS011;59459;51.172;6.682;2023-09-18T09:57:51;3.63;;;1.27;;
71610;SDS011;59459;51.172;6.682;2023-09-18T10:00:16;4.43;;;1.20;;
71610;SDS011;59459;51.172;6.682;2023-09-18T10:03:08;2.97;;;1.23;;
71610;SDS011;59459;51.172;6.682;2023-09-18T10:05:35;3.47;;;1.03;;
71610;SDS011;59459;51.172;6.682;2023-09-18T10:08:02;5.45;;;1.20;;
71610;SDS011;59459;51.172;6.682;2023-09-18T10:10:30;3.53;;;1.20;;
71610;SDS011;59459;51.172;6.682;2023-09-18T10:12:57;7.10;;;1.42;;
71610;SDS011;59459;51.172;6.682;2023-09-18T10:15:22;3.45;;;1.17;;
71610;SDS011;59459;51.172;6.682;2023-09-18T10:17:48;4.03;;;1.67;;
71610;SDS011;59459;51.172;6.682;2023-09-18T10:20:17;3.83;;;1.38;;
71610;SDS011;59459;51.172;6.682;2023-09-18T10:22:45;3.65;;;1.65;;
71610;SDS011;59459;51.172;6.682;2023-09-18T10:25:19;2.92;;;1.27;;
71610;SDS011;59459;51.172;6.682;2023-09-18T10:27:46;4.45;;;1.48;;
71610;SDS011;59459;51.172;6.682;2023-09-18T10:30:14;3.70;;;1.40;;
71610;SDS011;59459;51.172;6.682;2023-09-18T10:32:40;3.10;;;1.15;;
71610;SDS011;59459;51.172;6.682;2023-09-18T10:35:06;5.37;;;1.20;;
71610;SDS011;59459;51.172;6.682;2023-09-18T10:37:31;4.15;;;1.13;;
71610;SDS011;59459;51.172;6.682;2023-09-18T10:39:56;4.53;;;1.77;;
71610;SDS011;59459;51.172;6.682;2023-09-18T10:42:23;5.30;;;1.10;;
71610;SDS011;59459;51.172;6.682;2023-09-18T10:44:49;3.20;;;1.40;;
71610;SDS011;59459;51.172;6.682;2023-09-18T10:47:15;19.80;;;3.60;;
71610;SDS011;59459;51.172;6.682;2023-09-18T10:49:41;3.28;;;1.25;;
71610;SDS011;59459;51.172;6.682;2023-09-18T10:52:10;3.27;;;1.10;;
71610;SDS011;59459;51.172;6.682;2023-09-18T10:54:36;2.63;;;1.52;;
71610;SDS011;59459;51.172;6.682;2023-09-18T10:57:03;4.57;;;1.40;;
71610;SDS011;59459;51.172;6.682;2023-09-18T10:59:28;4.25;;;1.25;;
71610;SDS011;59459;51.172;6.682;2023-09-18T11:01:54;2.53;;;1.37;;
71610;SDS011;59459;51.172;6.682;2023-09-18T11:04:20;2.63;;;1.20;;
71610;SDS011;59459;51.172;6.682;2023-09-18T11:11:45;3.30;;;1.30;;
71610;SDS011;59459;51.172;6.682;2023-09-18T11:14:13;4.30;;;1.52;;
71610;SDS011;59459;51.172;6.682;2023-09-18T11:16:40;3.88;;;1.90;;
71610;SDS011;59459;51.172;6.682;2023-09-18T11:19:12;2.67;;;1.30;;
71610;SDS011;59459;51.172;6.682;2023-09-18T11:21:39;2.53;;;1.27;;
71610;SDS011;59459;51.172;6.682;2023-09-18T11:24:07;3.80;;;1.30;;
71610;SDS011;59459;51.172;6.682;2023-09-18T11:26:37;3.13;;;1.23;;
71610;SDS011;59459;51.172;6.682;2023-09-18T11:29:10;3.08;;;1.50;;
71610;SDS011;59459;51.172;6.682;2023-09-18T11:31:46;2.77;;;1.03;;
71610;SDS011;59459;51.172;6.682;2023-09-18T11:34:13;4.35;;;1.73;;
71610;SDS011;59459;51.172;6.682;2023-09-18T11:36:38;2.95;;;1.67;;
71610;SDS011;59459;51.172;6.682;2023-09-18T11:39:04;3.93;;;1.60;;
71610;SDS011;59459;51.172;6.682;2023-09-18T11:41:30;2.90;;;1.87;;
71610;SDS011;59459;51.172;6.682;2023-09-18T11:46:44;4.90;;;1.77;;
71610;SDS011;59459;51.172;6.682;2023-09-18T11:49:13;3.60;;;1.25;;
71610;SDS011;59459;51.172;6.682;2023-09-18T11:51:38;3.43;;;1.67;;
71610;SDS011;59459;51.172;6.682;2023-09-18T11:54:04;4.47;;;1.50;;
71610;SDS011;59459;51.172;6.682;2023-09-18T11:56:30;4.68;;;1.30;;
71610;SDS011;59459;51.172;6.682;2023-09-18T11:58:56;4.75;;;1.88;;
71610;SDS011;59459;51.172;6.682;2023-09-18T12:01:21;4.43;;;1.70;;
71610;SDS011;59459;51.172;6.682;2023-09-18T12:03:52;4.00;;;1.60;;
71610;SDS011;59459;51.172;6.682;2023-09-18T12:06:18;3.15;;;1.40;;
71610;SDS011;59459;51.172;6.682;2023-09-18T12:08:43;3.67;;;1.77;;
71610;SDS011;59459;51.172;6.682;2023-09-18T12:11:08;3.53;;;1.60;;
71610;SDS011;59459;51.172;6.682;2023-09-18T12:13:34;3.43;;;1.67;;
71610;SDS011;59459;51.172;6.682;2023-09-18T12:16:00;3.43;;;1.57;;
71610;SDS011;59459;51.172;6.682;2023-09-18T12:18:26;4.13;;;1.65;;
71610;SDS011;59459;51.172;6.682;2023-09-18T12:20:53;4.10;;;1.63;;
71610;SDS011;59459;51.172;6.682;2023-09-18T12:23:21;2.78;;;1.30;;
71610;SDS011;59459;51.172;6.682;2023-09-18T12:25:46;3.07;;;1.63;;
71610;SDS011;59459;51.172;6.682;2023-09-18T12:28:13;5.40;;;1.80;;
71610;SDS011;59459;51.172;6.682;2023-09-18T12:30:40;3.77;;;1.50;;
71610;SDS011;59459;51.172;6.682;2023-09-18T12:33:05;2.60;;;1.40;;
71610;SDS011;59459;51.172;6.682;2023-09-18T12:35:31;3.73;;;1.60;;
71610;SDS011;59459;51.172;6.682;2023-09-18T12:37:59;4.07;;;1.43;;
71610;SDS011;59459;51.172;6.682;2023-09-18T12:40:28;4.05;;;1.52;;
71610;SDS011;59459;51.172;6.682;2023-09-18T12:42:55;3.38;;;1.30;;
71610;SDS011;59459;51.172;6.682;2023-09-18T12:45:21;3.10;;;1.10;;
71610;SDS011;59459;51.172;6.682;2023-09-18T12:47:47;5.10;;;1.40;;
71610;SDS011;59459;51.172;6.682;2023-09-18T12:50:13;3.57;;;1.43;;
71610;SDS011;59459;51.172;6.682;2023-09-18T12:52:38;3.10;;;1.83;;
71610;SDS011;59459;51.172;6.682;2023-09-18T12:55:03;3.20;;;1.10;;
71610;SDS011;59459;51.172;6.682;2023-09-18T12:57:31;3.63;;;1.60;;
71610;SDS011;59459;51.172;6.682;2023-09-18T12:59:56;2.73;;;1.37;;
71610;SDS011;59459;51.172;6.682;2023-09-18T13:02:21;2.90;;;1.03;;
71610;SDS011;59459;51.172;6.682;2023-09-18T13:04:51;3.88;;;1.75;;
71610;SDS011;59459;51.172;6.682;2023-09-18T13:07:16;2.75;;;1.10;;
71610;SDS011;59459;51.172;6.682;2023-09-18T13:09:42;2.27;;;1.37;;
71610;SDS011;59459;51.172;6.682;2023-09-18T13:12:08;3.15;;;1.75;;
71610;SDS011;59459;51.172;6.682;2023-09-18T13:17:17;2.63;;;1.52;;
71610;SDS011;59459;51.172;6.682;2023-09-18T13:19:42;4.30;;;1.60;;
71610;SDS011;59459;51.172;6.682;2023-09-18T13:22:08;5.60;;;1.63;;
71610;SDS011;59459;51.172;6.682;2023-09-18T13:24:33;4.47;;;1.33;;
71610;SDS011;59459;51.172;6.682;2023-09-18T13:26:59;3.58;;;1.55;;
71610;SDS011;59459;51.172;6.682;2023-09-18T13:29:24;3.40;;;1.50;;
71610;SDS011;59459;51.172;6.682;2023-09-18T13:31:50;3.50;;;1.40;;
71610;SDS011;59459;51.172;6.682;2023-09-18T13:34:16;2.83;;;1.52;;
71610;SDS011;59459;51.172;6.682;2023-09-18T13:36:44;2.30;;;1.15;;
71610;SDS011;59459;51.172;6.682;2023-09-18T13:39:10;2.70;;;1.30;;
71610;SDS011;59459;51.172;6.682;2023-09-18T13:41:36;3.70;;;1.00;;
71610;SDS011;59459;51.172;6.682;2023-09-18T13:44:01;3.70;;;1.83;;
71610;SDS011;59459;51.172;6.682;2023-09-18T13:46:27;4.17;;;1.30;;
71610;SDS011;59459;51.172;6.682;2023-09-18T13:48:52;3.43;;;1.30;;
71610;SDS011;59459;51.172;6.682;2023-09-18T13:51:17;2.33;;;1.43;;
71610;SDS011;59459;51.172;6.682;2023-09-18T13:53:43;5.10;;;1.43;;
71610;SDS011;59459;51.172;6.682;2023-09-18T13:56:08;3.97;;;1.83;;
71610;SDS011;59459;51.172;6.682;2023-09-18T13:58:33;3.20;;;1.50;;
71610;SDS011;59459;51.172;6.682;2023-09-18T14:01:00;2.87;;;1.53;;
71610;SDS011;59459;51.172;6.682;2023-09-18T14:03:25;3.47;;;2.10;;
71610;SDS011;59459;51.172;6.682;2023-09-18T14:05:51;3.60;;;1.40;;
71610;SDS011;59459;51.172;6.682;2023-09-18T14:08:16;4.47;;;1.60;;
71610;SDS011;59459;51.172;6.682;2023-09-18T14:10:42;4.30;;;1.70;;
71610;SDS011;59459;51.172;6.682;2023-09-18T14:13:08;3.30;;;1.40;;
71610;SDS011;59459;51.172;6.682;2023-09-18T14:15:33;3.37;;;1.50;;
71610;SDS011;59459;51.172;6.682;2023-09-18T14:17:58;4.90;;;1.40;;
71610;SDS011;59459;51.172;6.682;2023-09-18T14:20:23;4.63;;;1.30;;
71610;SDS011;59459;51.172;6.682;2023-09-18T14:22:49;6.13;;;1.83;;
71610;SDS011;59459;51.172;6.682;2023-09-18T14:25:14;3.50;;;1.57;;
71610;SDS011;59459;51.172;6.682;2023-09-18T14:27:40;2.97;;;1.27;;
71610;SDS011;59459;51.172;6.682;2023-09-18T14:30:06;3.17;;;1.30;;
71610;SDS011;59459;51.172;6.682;2023-09-18T14:32:32;4.30;;;1.50;;
71610;SDS011;59459;51.172;6.682;2023-09-18T14:34:58;5.77;;;1.70;;
71610;SDS011;59459;51.172;6.682;2023-09-18T14:37:26;7.25;;;2.53;;
71610;SDS011;59459;51.172;6.682;2023-09-18T14:39:51;3.73;;;1.50;;
71610;SDS011;59459;51.172;6.682;2023-09-18T14:42:17;5.20;;;1.40;;
71610;SDS011;59459;51.172;6.682;2023-09-18T14:44:42;3.03;;;1.30;;
71610;SDS011;59459;51.172;6.682;2023-09-18T14:47:10;3.13;;;1.50;;
71610;SDS011;59459;51.172;6.682;2023-09-18T14:49:35;2.80;;;1.23;;
71610;SDS011;59459;51.172;6.682;2023-09-18T14:52:01;2.33;;;1.10;;
71610;SDS011;59459;51.172;6.682;2023-09-18T14:54:28;5.72;;;1.20;;
71610;SDS011;59459;51.172;6.682;2023-09-18T14:56:53;3.47;;;1.30;;